Time;durP1;ratioP1;P1;durP2;ratioP2;P2;SDS_P1;SDS_P2;PMS_P1;PMS_P2;Temp;Humidity;BMP_temperature;BMP_pressure;BME280_temperature;BME280_humidity;BME280_pressure;Samples;Min_cycle;Max_cycle;Signal;HPM_P1;HPM_P2
2023/10/19 00:02:15;;;;;;;30.60;20.00;;;;;;;1.76;100.00;100954.98;106982;1254;71062;-75
2023/10/19 00:04:44;;;;;;;32.20;19.80;;;;;;;1.70;100.00;100954.87;107029;1249;60209;-75
2023/10/19 00:07:15;;;;;;;34.10;20.90;;;;;;;1.65;100.00;100953.98;106986;1248;59397;-74
2023/10/19 00:09:52;;;;;;;30.50;20.70;;;;;;;1.60;100.00;100951.73;107076;1255;73267;-75
2023/10/19 00:12:22;;;;;;;33.80;20.70;;;;;;;1.58;100.00;100950.77;107146;1249;69613;-75
2023/10/19 00:14:54;;;;;;;36.50;21.00;;;;;;;1.57;100.00;100949.77;107165;1256;58971;-74
2023/10/19 00:17:26;;;;;;;34.00;20.70;;;;;;;1.56;100.00;100948.23;107027;1245;72762;-76
2023/10/19 00:20:27;;;;;;;32.20;19.90;;;;;;;1.58;100.00;100945.27;107024;1244;61042;-76
2023/10/19 00:22:48;;;;;;;34.20;20.70;;;;;;;1.55;100.00;100944.86;107152;1244;61252;-74
2023/10/19 00:25:18;;;;;;;32.60;21.70;;;;;;;1.52;100.00;100948.88;107196;1252;71669;-74
2023/10/19 00:27:48;;;;;;;35.10;21.00;;;;;;;1.44;100.00;100948.95;107254;1245;70603;-73
2023/10/19 00:30:23;;;;;;;30.70;19.70;;;;;;;1.38;100.00;100948.48;108122;1245;68691;-74
2023/10/19 00:32:52;;;;;;;33.00;20.00;;;;;;;1.32;100.00;100948.13;107840;1245;72873;-75
2023/10/19 00:35:27;;;;;;;30.80;20.70;;;;;;;1.31;100.00;100945.42;107242;1244;62287;-76
2023/10/19 00:38:12;;;;;;;28.50;19.40;;;;;;;1.35;100.00;100946.00;107163;1246;60783;-73
2023/10/19 00:40:45;;;;;;;29.90;20.40;;;;;;;1.44;100.00;100946.06;107035;1247;71986;-77
2023/10/19 00:43:32;;;;;;;35.10;21.40;;;;;;;1.43;100.00;100945.25;107026;1255;70251;-77
2023/10/19 00:46:08;;;;;;;31.20;19.90;;;;;;;1.41;100.00;100949.25;107105;1256;60148;-78
2023/10/19 00:48:40;;;;;;;34.00;21.90;;;;;;;1.34;100.00;100947.55;107007;1256;71415;-75
2023/10/19 00:51:09;;;;;;;30.20;21.30;;;;;;;1.30;100.00;100950.95;107117;1244;60275;-77
2023/10/19 00:53:39;;;;;;;38.10;22.30;;;;;;;1.26;100.00;100951.58;107124;1248;59133;-78
2023/10/19 00:56:10;;;;;;;32.10;20.50;;;;;;;1.26;100.00;100948.84;107044;1255;73204;-76
2023/10/19 00:58:41;;;;;;;31.00;20.60;;;;;;;1.23;100.00;100946.70;107171;1245;71734;-75
2023/10/19 01:01:10;;;;;;;29.20;19.70;;;;;;;1.25;100.00;100943.90;107229;1246;67542;-77
2023/10/19 01:03:44;;;;;;;30.30;19.70;;;;;;;1.22;100.00;100938.16;107082;1248;74347;-76
2023/10/19 01:06:13;;;;;;;34.00;21.00;;;;;;;1.19;100.00;100939.44;107277;1245;59892;-72
2023/10/19 01:08:42;;;;;;;29.00;19.70;;;;;;;1.17;100.00;100935.38;107111;1248;61012;-74
2023/10/19 01:11:15;;;;;;;30.50;19.80;;;;;;;1.16;100.00;100935.92;107157;1256;73735;-76
2023/10/19 01:13:47;;;;;;;32.30;21.10;;;;;;;1.13;100.00;100938.23;107133;1248;70990;-75
2023/10/19 01:16:21;;;;;;;31.70;20.60;;;;;;;1.10;100.00;100934.56;107155;1244;70173;-77
2023/10/19 01:18:53;;;;;;;32.80;20.60;;;;;;;1.04;100.00;100931.45;107128;1247;73863;-75
2023/10/19 01:21:37;;;;;;;36.40;21.00;;;;;;;1.01;100.00;100932.41;106904;1251;62305;-77
2023/10/19 01:24:12;;;;;;;30.90;21.00;;;;;;;0.98;100.00;100930.45;107130;1248;58590;-76
2023/10/19 01:26:42;;;;;;;33.40;21.70;;;;;;;0.96;100.00;100929.98;107224;1256;70987;-79
2023/10/19 01:29:14;;;;;;;34.90;22.10;;;;;;;0.93;100.00;100927.70;107255;1244;72222;-77
2023/10/19 01:34:33;;;;;;;35.60;22.00;;;;;;;0.84;100.00;100928.11;107197;1245;71097;-75
2023/10/19 01:37:03;;;;;;;36.10;21.50;;;;;;;0.79;100.00;100925.84;107159;1245;59574;-73
2023/10/19 01:39:37;;;;;;;35.20;21.70;;;;;;;0.71;100.00;100922.46;107133;1243;60468;-75
2023/10/19 01:42:08;;;;;;;30.80;20.20;;;;;;;0.62;100.00;100924.10;107244;1248;73062;-75
2023/10/19 01:44:37;;;;;;;33.20;21.50;;;;;;;0.57;100.00;100919.44;107337;1252;70890;-75
2023/10/19 01:47:06;;;;;;;34.70;21.80;;;;;;;0.53;100.00;100919.90;107195;1245;68485;-76
2023/10/19 01:49:37;;;;;;;39.30;22.80;;;;;;;0.50;100.00;100911.91;107154;1253;73593;-75
2023/10/19 01:52:06;;;;;;;32.70;22.60;;;;;;;0.47;100.00;100911.31;107032;1244;60631;-75
2023/10/19 01:54:37;;;;;;;36.20;23.90;;;;;;;0.46;100.00;100911.88;107147;1247;59018;-75
2023/10/19 01:57:08;;;;;;;35.60;22.90;;;;;;;0.43;100.00;100912.13;107101;1243;73103;-75
2023/10/19 01:59:37;;;;;;;33.70;22.70;;;;;;;0.40;100.00;100910.14;107092;1248;71039;-75
2023/10/19 02:02:09;;;;;;;38.10;24.50;;;;;;;0.37;100.00;100909.55;107137;1245;68601;-74
2023/10/19 02:04:40;;;;;;;37.80;23.80;;;;;;;0.34;100.00;100906.89;107190;1245;72838;-74
2023/10/19 02:07:17;;;;;;;35.80;22.80;;;;;;;0.31;100.00;100902.50;107265;1245;60796;-74
2023/10/19 02:09:47;;;;;;;33.70;22.80;;;;;;;0.28;100.00;100902.42;107117;1248;61109;-75
2023/10/19 02:12:18;;;;;;;34.90;23.00;;;;;;;0.25;100.00;100905.75;107115;1244;73999;-76
2023/10/19 02:14:47;;;;;;;35.90;22.00;;;;;;;0.26;100.00;100910.35;107019;1244;71918;-74
2023/10/19 02:17:17;;;;;;;35.80;22.20;;;;;;;0.27;100.00;100911.52;107070;1255;70480;-75
2023/10/19 02:19:46;;;;;;;37.10;22.30;;;;;;;0.29;100.00;100909.26;107099;1248;71622;-78
2023/10/19 02:22:16;;;;;;;34.40;22.90;;;;;;;0.27;100.00;100911.17;107245;1245;61668;-75
2023/10/19 02:24:45;;;;;;;38.10;23.90;;;;;;;0.26;100.00;100906.21;107116;1249;61147;-75
2023/10/19 02:27:15;;;;;;;36.60;23.20;;;;;;;0.27;100.00;100908.42;107107;1244;71905;-75
2023/10/19 02:30:03;;;;;;;38.00;23.20;;;;;;;0.25;100.00;100907.45;107163;1256;71898;-76
2023/10/19 02:32:33;;;;;;;33.00;21.90;;;;;;;0.30;100.00;100911.09;107224;1245;68420;-77
2023/10/19 02:35:02;;;;;;;36.10;22.60;;;;;;;0.32;100.00;100911.55;107239;1248;72385;-75
2023/10/19 02:37:32;;;;;;;33.60;21.70;;;;;;;0.32;100.00;100911.36;107229;1245;61768;-75
2023/10/19 02:40:03;;;;;;;35.60;22.20;;;;;;;0.31;100.00;100912.95;107239;1245;60677;-75
2023/10/19 02:42:32;;;;;;;37.20;22.30;;;;;;;0.31;100.00;100909.55;107250;1245;73932;-76
2023/10/19 02:45:03;;;;;;;37.70;22.60;;;;;;;0.30;100.00;100910.95;107206;1248;70181;-76
2023/10/19 02:47:34;;;;;;;37.50;22.80;;;;;;;0.28;100.00;100912.00;107360;1256;68743;-75
2023/10/19 02:50:10;;;;;;;37.90;23.90;;;;;;;0.28;100.00;100907.89;107244;1256;73667;-75
2023/10/19 02:52:41;;;;;;;38.90;24.30;;;;;;;0.27;100.00;100907.75;107264;1245;60174;-75
2023/10/19 02:55:10;;;;;;;41.60;26.10;;;;;;;0.25;100.00;100912.26;107098;1248;60217;-74
2023/10/19 02:57:39;;;;;;;47.60;27.80;;;;;;;0.23;100.00;100912.66;107070;1251;72985;-74
2023/10/19 03:00:13;;;;;;;44.30;26.00;;;;;;;0.24;100.00;100911.77;107154;1244;71954;-75
2023/10/19 03:02:42;;;;;;;43.40;25.30;;;;;;;0.20;100.00;100911.88;107111;1247;70041;-75
2023/10/19 03:05:14;;;;;;;35.10;22.40;;;;;;;0.14;100.00;100911.02;107242;1256;72643;-75
2023/10/19 03:07:44;;;;;;;36.60;23.20;;;;;;;0.04;100.00;100910.92;107227;1245;59620;-74
2023/10/19 03:10:34;;;;;;;36.10;22.60;;;;;;;-0.02;100.00;100909.02;107145;1248;60233;-74
2023/10/19 03:13:04;;;;;;;37.20;23.30;;;;;;;-0.16;100.00;100910.23;107140;1248;71844;-74
2023/10/19 03:15:33;;;;;;;35.30;23.10;;;;;;;-0.23;100.00;100906.14;107174;1248;70136;-74
2023/10/19 03:18:04;;;;;;;38.10;24.40;;;;;;;-0.27;100.00;100899.53;107164;1244;69625;-74
2023/10/19 03:20:33;;;;;;;38.70;23.60;;;;;;;-0.29;100.00;100901.98;107095;1247;72243;-74
2023/10/19 03:23:02;;;;;;;42.10;26.00;;;;;;;-0.29;100.00;100902.14;107183;1243;59046;-74
2023/10/19 03:25:56;;;;;;;39.70;24.70;;;;;;;-0.29;100.00;100897.69;107060;1248;58992;-75
2023/10/19 03:28:26;;;;;;;39.50;24.90;;;;;;;-0.28;100.00;100897.35;107077;1245;72640;-74
2023/10/19 03:30:59;;;;;;;46.10;26.80;;;;;;;-0.26;100.00;100895.95;107041;1245;70101;-74
2023/10/19 03:33:29;;;;;;;52.00;31.40;;;;;;;-0.25;100.00;100896.94;106965;1245;68396;-74
2023/10/19 03:35:58;;;;;;;41.20;24.90;;;;;;;-0.24;100.00;100893.83;106974;1247;70950;-74
2023/10/19 03:38:31;;;;;;;38.70;25.20;;;;;;;-0.25;100.00;100894.89;107004;1248;60466;-74
2023/10/19 03:41:06;;;;;;;40.60;24.70;;;;;;;-0.26;100.00;100888.75;107890;1244;60392;-75
2023/10/19 03:43:40;;;;;;;39.80;24.20;;;;;;;-0.25;100.00;100883.23;107089;1249;72454;-74
2023/10/19 03:46:28;;;;;;;35.60;23.50;;;;;;;-0.24;100.00;100881.33;107096;1246;69587;-78
2023/10/19 03:49:10;;;;;;;39.80;26.20;;;;;;;-0.24;100.00;100884.08;107089;1256;67821;-75
2023/10/19 03:51:57;;;;;;;;;;;;;;;-0.27;100.00;100880.20;107207;1244;73749;-77
2023/10/19 03:54:28;;;;;;;39.60;27.50;;;;;;;-0.30;100.00;100881.63;107200;1246;63339;-75
2023/10/19 03:57:05;;;;;;;40.50;25.60;;;;;;;-0.31;100.00;100877.73;107168;1255;60436;-76
2023/10/19 03:59:35;;;;;;;39.20;25.80;;;;;;;-0.34;100.00;100879.18;107275;1254;72736;-75
2023/10/19 04:02:13;;;;;;;41.90;24.60;;;;;;;-0.35;100.00;100874.58;107291;1245;70273;-75
2023/10/19 04:04:43;;;;;;;40.20;25.30;;;;;;;-0.37;100.00;100868.63;107139;1244;70249;-78
2023/10/19 04:07:21;;;;;;;44.70;25.20;;;;;;;-0.40;100.00;100865.98;107441;1245;74106;-81
2023/10/19 04:12:38;;;;;;;40.70;25.90;;;;;;;-0.43;100.00;100861.45;107649;1245;61418;-80
2023/10/19 04:15:17;;;;;;;37.80;24.90;;;;;;;-0.45;100.00;100859.63;107323;1244;71856;-80
2023/10/19 04:17:52;;;;;;;40.20;25.30;;;;;;;-0.46;100.00;100854.98;107243;1246;69902;-76
2023/10/19 04:22:54;;;;;;;39.50;24.60;;;;;;;-0.44;100.00;100850.67;107157;1248;73538;-77
2023/10/19 04:25:25;;;;;;;43.60;27.00;;;;;;;-0.40;100.00;100849.19;107272;1245;59999;-77
2023/10/19 04:27:57;;;;;;;44.30;26.20;;;;;;;-0.40;100.00;100852.45;107207;1245;60472;-80
2023/10/19 04:30:26;;;;;;;43.20;26.80;;;;;;;-0.40;100.00;100851.08;107275;1245;74724;-75
2023/10/19 04:32:57;;;;;;;44.40;26.00;;;;;;;-0.39;100.00;100848.50;107267;1243;70589;-76
2023/10/19 04:35:30;;;;;;;40.00;25.60;;;;;;;-0.36;100.00;100847.39;107179;1245;68486;-75
2023/10/19 04:37:59;;;;;;;39.50;24.20;;;;;;;-0.36;100.00;100849.44;107443;1244;74120;-76
2023/10/19 04:40:28;;;;;;;44.20;25.50;;;;;;;-0.30;100.00;100849.29;107348;1244;59993;-77
2023/10/19 04:42:58;;;;;;;51.40;26.30;;;;;;;-0.27;100.00;100845.98;107322;1256;58903;-75
2023/10/19 04:45:27;;;;;;;41.50;27.50;;;;;;;-0.23;100.00;100842.96;107425;1244;73360;-78
2023/10/19 04:47:55;;;;;;;44.20;26.10;;;;;;;-0.21;100.00;100845.14;107246;1245;72167;-76
2023/10/19 04:50:25;;;;;;;41.80;25.70;;;;;;;-0.19;100.00;100843.02;107094;1245;68952;-77
2023/10/19 04:52:54;;;;;;;50.30;29.60;;;;;;;-0.17;100.00;100839.21;106952;1245;71456;-75
2023/10/19 04:55:23;;;;;;;51.80;30.60;;;;;;;-0.12;100.00;100838.57;107131;1246;61506;-77
2023/10/19 04:57:52;;;;;;;58.90;30.60;;;;;;;-0.06;100.00;100837.89;107034;1246;59156;-76
2023/10/19 05:00:22;;;;;;;51.20;31.30;;;;;;;-0.01;100.00;100836.05;107080;1245;71604;-74
2023/10/19 05:02:51;;;;;;;54.80;31.70;;;;;;;0.03;100.00;100835.78;107078;1256;72190;-75
2023/10/19 05:05:21;;;;;;;53.10;31.80;;;;;;;0.08;100.00;100834.42;107002;1248;68548;-75
2023/10/19 05:07:50;;;;;;;56.20;33.30;;;;;;;0.03;100.00;100822.27;106899;1248;72068;-75
2023/10/19 05:10:19;;;;;;;55.70;32.80;;;;;;;0.16;100.00;100837.63;107020;1248;60361;-75
2023/10/19 05:12:48;;;;;;;55.60;33.30;;;;;;;0.22;100.00;100843.98;107111;1251;61340;-74
2023/10/19 05:15:18;;;;;;;55.60;32.80;;;;;;;0.27;100.00;100849.67;107183;1255;72551;-75
2023/10/19 05:17:47;;;;;;;59.40;34.70;;;;;;;0.33;100.00;100850.72;107253;1245;70757;-76
2023/10/19 05:20:16;;;;;;;73.10;42.30;;;;;;;0.38;100.00;100852.27;107292;1245;71928;-76
2023/10/19 05:22:45;;;;;;;92.10;50.60;;;;;;;0.47;100.00;100854.42;107270;1245;73832;-75
2023/10/19 05:25:15;;;;;;;163.10;82.00;;;;;;;0.57;100.00;100855.67;106836;1244;500048;-75
2023/10/19 05:27:45;;;;;;;97.70;51.50;;;;;;;0.77;100.00;100860.08;107178;1244;61848;-76
2023/10/19 05:30:14;;;;;;;220.30;104.10;;;;;;;0.96;100.00;100857.79;107169;1245;71339;-75
2023/10/19 05:32:45;;;;;;;95.60;53.30;;;;;;;1.10;100.00;100854.11;107048;1246;70991;-78
2023/10/19 05:35:22;;;;;;;65.30;37.10;;;;;;;1.45;100.00;100854.20;107159;1245;68219;-77
2023/10/19 05:37:51;;;;;;;60.60;37.10;;;;;;;1.70;100.00;100856.13;107015;1255;72211;-78
2023/10/19 05:40:23;;;;;;;77.90;49.60;;;;;;;1.84;100.00;100849.98;107149;1252;60709;-78
2023/10/19 05:42:52;;;;;;;50.40;31.50;;;;;;;1.94;100.00;100845.37;107199;1246;59898;-75
2023/10/19 05:45:21;;;;;;;64.10;36.70;;;;;;;2.14;100.00;100840.86;107037;1247;73715;-76
2023/10/19 05:47:52;;;;;;;53.90;33.70;;;;;;;2.35;100.00;100839.27;107069;1244;72648;-74
2023/10/19 05:50:21;;;;;;;53.90;33.50;;;;;;;2.43;100.00;100834.69;107086;1244;71329;-75
2023/10/19 05:52:51;;;;;;;54.50;32.20;;;;;;;2.54;100.00;100835.65;107093;1245;74130;-75
2023/10/19 05:55:24;;;;;;;42.70;29.00;;;;;;;2.68;100.00;100832.89;107104;1242;62856;-76
2023/10/19 05:57:53;;;;;;;87.90;67.30;;;;;;;2.82;100.00;100828.39;107155;1244;60103;-75
2023/10/19 06:00:25;;;;;;;60.80;38.10;;;;;;;2.92;100.00;100828.70;107158;1244;74506;-78
2023/10/19 06:02:54;;;;;;;42.80;27.10;;;;;;;3.06;100.00;100826.10;107076;1252;72361;-75
2023/10/19 06:05:24;;;;;;;34.30;23.00;;;;;;;3.16;100.00;100828.94;107121;1244;71216;-75
2023/10/19 06:07:53;;;;;;;33.10;23.10;;;;;;;3.24;100.00;100832.08;107069;1244;73286;-75
2023/10/19 06:10:22;;;;;;;37.50;23.90;;;;;;;3.31;100.00;100828.02;107188;1244;61682;-74
2023/10/19 06:12:52;;;;;;;33.20;22.50;;;;;;;3.40;100.00;100823.36;107152;1244;60887;-75
2023/10/19 06:15:24;;;;;;;34.70;21.90;;;;;;;3.53;100.00;100825.75;107196;1244;74480;-75
2023/10/19 06:17:53;;;;;;;31.80;20.40;;;;;;;3.66;100.00;100826.77;107104;1250;61789;-75
2023/10/19 06:20:29;;;;;;;30.10;20.10;;;;;;;3.79;100.00;100822.40;107264;1245;67612;-77
2023/10/19 06:23:05;;;;;;;33.70;20.90;;;;;;;3.86;100.00;100822.63;107035;1244;74791;-75
2023/10/19 06:25:34;;;;;;;39.70;23.30;;;;;;;3.87;100.00;100821.23;107131;1245;59105;-70
2023/10/19 06:28:05;;;;;;;41.40;23.30;;;;;;;3.89;100.00;100823.38;107086;1245;60965;-75
2023/10/19 06:30:34;;;;;;;37.80;22.50;;;;;;;4.03;100.00;100815.38;107269;1244;73085;-75
2023/10/19 06:33:04;;;;;;;38.70;23.70;;;;;;;4.01;100.00;100811.99;107369;1244;71798;-74
2023/10/19 06:35:36;;;;;;;37.50;22.70;;;;;;;4.03;100.00;100810.36;107358;1246;70897;-74
2023/10/19 06:38:05;;;;;;;36.90;23.40;;;;;;;4.08;100.00;100812.38;107231;1245;71800;-74
2023/10/19 06:40:37;;;;;;;47.30;25.70;;;;;;;4.22;100.00;100805.20;107340;1245;59267;-76
2023/10/19 06:43:06;;;;;;;39.60;21.20;;;;;;;4.45;100.00;100807.95;107258;1246;59108;-76
2023/10/19 06:45:35;;;;;;;37.10;21.10;;;;;;;4.59;100.00;100805.45;107366;1244;62747;-75
2023/10/19 06:48:06;;;;;;;34.50;20.50;;;;;;;4.67;100.00;100796.77;107288;1246;71420;-76
2023/10/19 06:50:36;;;;;;;29.40;18.50;;;;;;;4.82;100.00;100796.44;107357;1244;59745;-75
2023/10/19 06:53:05;;;;;;;26.50;16.80;;;;;;;4.92;100.00;100787.88;107250;1255;62864;-74
2023/10/19 06:55:34;;;;;;;26.20;17.40;;;;;;;5.00;100.00;100780.55;107278;1245;59121;-75
2023/10/19 06:58:04;;;;;;;27.50;16.80;;;;;;;5.04;100.00;100778.81;107301;1245;58997;-76
2023/10/19 07:00:34;;;;;;;25.80;17.00;;;;;;;5.09;100.00;100775.11;107244;1245;62268;-78
2023/10/19 07:03:03;;;;;;;25.80;16.50;;;;;;;5.29;100.00;100769.47;107363;1246;60721;-78
2023/10/19 07:05:32;;;;;;;23.60;14.70;;;;;;;5.53;100.00;100765.51;107350;1255;60780;-78
2023/10/19 07:08:02;;;;;;;22.50;16.20;;;;;;;5.72;100.00;100762.14;107303;1245;64595;-77
2023/10/19 07:10:32;;;;;;;21.40;13.90;;;;;;;5.88;100.00;100762.89;107384;1252;61992;-76
2023/10/19 07:13:01;;;;;;;17.00;13.20;;;;;;;5.95;100.00;100760.13;107491;1244;58622;-76
2023/10/19 07:15:31;;;;;;;20.90;13.60;;;;;;;6.06;100.00;100752.42;107407;1244;73271;-74
2023/10/19 07:18:00;;;;;;;22.00;13.50;;;;;;;6.07;100.00;100752.87;107432;1255;61867;-75
2023/10/19 07:20:31;;;;;;;22.40;13.10;;;;;;;6.10;100.00;100743.71;107454;1253;59089;-73
2023/10/19 07:23:09;;;;;;;23.80;14.70;;;;;;;6.20;100.00;100739.06;107337;1245;73060;-73
2023/10/19 07:25:44;;;;;;;17.70;11.60;;;;;;;6.26;100.00;100736.50;107316;1244;60506;-74
2023/10/19 07:28:15;;;;;;;21.00;13.50;;;;;;;6.40;100.00;100732.08;107319;1249;60224;-75
2023/10/19 07:30:46;;;;;;;16.90;12.50;;;;;;;6.55;100.00;100728.19;107251;1248;61807;-76
2023/10/19 07:33:19;;;;;;;27.50;14.40;;;;;;;6.73;100.00;100725.59;107221;1245;71462;-75
2023/10/19 07:35:59;;;;;;;20.90;12.40;;;;;;;6.96;100.00;100717.89;107120;1245;60213;-75
2023/10/19 07:38:32;;;;;;;18.00;12.60;;;;;;;7.23;100.00;100711.83;107170;1244;62460;-76
2023/10/19 07:41:02;;;;;;;16.00;11.40;;;;;;;7.45;100.00;100703.79;107209;1244;61765;-75
2023/10/19 07:43:31;;;;;;;15.80;11.30;;;;;;;7.55;100.00;100700.77;107177;1244;59090;-75
2023/10/19 07:46:01;;;;;;;16.00;10.80;;;;;;;7.71;100.00;100701.35;107079;1248;62759;-75
2023/10/19 07:48:30;;;;;;;16.00;11.00;;;;;;;7.93;100.00;100699.85;107194;1245;60674;-76
2023/10/19 07:50:59;;;;;;;16.60;10.70;;;;;;;8.12;100.00;100697.98;107036;1248;59829;-76
2023/10/19 07:53:28;;;;;;;15.90;10.50;;;;;;;8.30;100.00;100698.40;107148;1245;62733;-75
2023/10/19 07:55:57;;;;;;;17.30;10.20;;;;;;;8.41;100.00;100700.30;107290;1244;59153;-75
2023/10/19 07:58:26;;;;;;;14.90;10.40;;;;;;;8.44;100.00;100696.11;107330;1244;59144;-76
2023/10/19 08:00:56;;;;;;;16.80;9.90;;;;;;;8.57;100.00;100688.93;107163;1244;71652;-76
2023/10/19 08:03:25;;;;;;;16.80;11.80;;;;;;;8.58;100.00;100683.95;107186;1245;71841;-74
2023/10/19 08:05:54;;;;;;;16.50;10.70;;;;;;;8.67;100.00;100685.12;107071;1255;70527;-77
2023/10/19 08:08:24;;;;;;;18.00;11.80;;;;;;;8.84;100.00;100681.59;107173;1244;73956;-79
2023/10/19 08:10:53;;;;;;;19.30;11.30;;;;;;;8.89;100.00;100678.70;106990;1247;62495;-77
2023/10/19 08:13:22;;;;;;;15.00;9.70;;;;;;;9.06;100.00;100675.81;107033;1249;61637;-76
2023/10/19 08:15:56;;;;;;;15.10;9.70;;;;;;;9.18;100.00;100667.55;106992;1248;75277;-75
2023/10/19 08:18:25;;;;;;;15.50;9.70;;;;;;;9.26;100.00;100668.20;106948;1244;72802;-77
2023/10/19 08:20:54;;;;;;;15.70;9.40;;;;;;;9.38;100.00;100668.61;106953;1255;70019;-75
2023/10/19 08:23:27;;;;;;;14.40;9.50;;;;;;;9.42;100.00;100664.13;107040;1245;63538;-74
2023/10/19 08:25:56;;;;;;;15.50;9.80;;;;;;;9.60;100.00;100655.27;107037;1245;58727;-75
2023/10/19 08:28:26;;;;;;;15.00;9.60;;;;;;;9.71;100.00;100653.11;107207;1245;59116;-75
2023/10/19 08:31:00;;;;;;;18.50;10.40;;;;;;;9.83;100.00;100648.43;107168;1244;72657;-73
2023/10/19 08:33:30;;;;;;;15.20;9.80;;;;;;;9.91;100.00;100652.63;107025;1244;71512;-75
2023/10/19 08:36:02;;;;;;;14.30;9.40;;;;;;;9.94;100.00;100650.84;107168;1248;60618;-75
2023/10/19 08:38:33;;;;;;;13.80;9.50;;;;;;;10.14;100.00;100647.28;107181;1244;73780;-74
2023/10/19 08:41:01;;;;;;;16.00;10.60;;;;;;;10.20;100.00;100645.14;107072;1244;62460;-74
2023/10/19 08:43:33;;;;;;;13.90;10.30;;;;;;;10.39;100.00;100642.20;107155;1254;60713;-74
2023/10/19 08:46:03;;;;;;;13.70;9.90;;;;;;;10.59;100.00;100638.11;107069;1245;62696;-74
2023/10/19 08:48:36;;;;;;;17.60;10.50;;;;;;;10.81;100.00;100631.84;106999;1246;61597;-77
2023/10/19 08:51:10;;;;;;;15.70;10.30;;;;;;;10.92;100.00;100622.97;107003;1256;60232;-77
2023/10/19 08:53:40;;;;;;;14.90;10.50;;;;;;;11.04;100.00;100617.88;106969;1248;63255;-76
2023/10/19 08:56:11;;;;;;;16.90;10.90;;;;;;;11.21;100.00;100615.56;107012;1245;60751;-75
2023/10/19 08:58:40;;;;;;;16.80;11.30;;;;;;;11.47;100.00;100607.42;107057;1248;61727;-75
2023/10/19 09:01:10;;;;;;;16.10;10.80;;;;;;;11.53;100.00;100601.41;107152;1244;73859;-75
2023/10/19 09:03:40;;;;;;;14.20;10.50;;;;;;;11.76;100.00;100594.92;107103;1246;72130;-76
2023/10/19 09:06:12;;;;;;;19.40;10.70;;;;;;;11.96;100.00;100587.22;107142;1246;59702;-74
2023/10/19 09:08:41;;;;;;;16.70;11.00;;;;;;;12.22;100.00;100585.41;106943;1248;63247;-73
2023/10/19 09:11:14;;;;;;;16.00;10.80;;;;;;;12.40;100.00;100579.61;107282;1244;59113;-76
2023/10/19 09:13:48;;;;;;;20.10;11.20;;;;;;;12.56;100.00;100567.30;107292;1251;61007;-76
2023/10/19 09:16:22;;;;;;;15.30;11.10;;;;;;;12.70;100.00;100565.02;107207;1244;63307;-75
2023/10/19 09:18:51;;;;;;;18.00;11.60;;;;;;;12.82;100.00;100562.55;107213;1246;70586;-76
2023/10/19 09:21:24;;;;;;;15.70;10.40;;;;;;;12.90;100.00;100557.98;107273;1245;60888;-77
2023/10/19 09:23:57;;;;;;;15.10;10.20;;;;;;;12.99;100.00;100556.36;107284;1252;72040;-78
2023/10/19 09:26:26;;;;;;;18.30;9.80;;;;;;;13.18;100.00;100548.96;107362;1244;60958;-87
2023/10/19 09:28:55;;;;;;;15.30;10.30;;;;;;;13.30;100.00;100546.54;107497;1245;59021;-78
2023/10/19 09:31:24;;;;;;;16.60;10.30;;;;;;;13.40;100.00;100541.63;107472;1255;62189;-74
2023/10/19 09:33:56;;;;;;;15.90;9.60;;;;;;;13.49;100.00;100542.30;107442;1245;71285;-73
2023/10/19 09:36:27;;;;;;;15.60;9.50;;;;;;;13.69;100.00;100536.16;107400;1243;69156;-77
2023/10/19 09:38:57;;;;;;;17.50;10.20;;;;;;;13.82;100.00;100538.19;107466;1244;72107;-76
2023/10/19 09:41:29;;;;;;;17.30;9.80;;;;;;;13.90;100.00;100530.67;107553;1244;60044;-77
2023/10/19 09:44:10;;;;;;;13.60;9.50;;;;;;;13.98;100.00;100529.21;107390;1247;59059;-76
2023/10/19 09:46:40;;;;;;;20.10;9.30;;;;;;;14.05;100.00;100515.98;107547;1245;64443;-79
2023/10/19 09:49:13;;;;;;;15.70;9.00;;;;;;;14.04;100.00;100503.81;107480;1245;71945;-75
2023/10/19 09:51:43;;;;;;;15.80;9.40;;;;;;;14.12;100.00;100499.62;107439;1245;60652;-79
2023/10/19 09:55:28;;;;;;;18.10;9.80;;;;;;;14.19;100.00;100499.28;107481;1241;73555;-78
2023/10/19 09:58:15;;;;;;;16.20;8.60;;;;;;;14.46;100.00;100509.77;107405;1245;59063;-77
2023/10/19 10:00:49;;;;;;;15.80;9.10;;;;;;;14.66;100.00;100508.29;107271;1248;57410;-80
2023/10/19 10:03:53;;;;;;;12.90;8.20;;;;;;;14.73;100.00;100505.52;107381;1245;73419;-81
2023/10/19 10:06:53;;;;;;;18.20;9.10;;;;;;;14.85;100.00;100499.48;107431;1246;73423;-74
2023/10/19 10:09:26;;;;;;;10.80;6.80;;;;;;;15.02;100.00;100501.39;107468;1244;60230;-74
2023/10/19 10:11:56;;;;;;;8.00;5.70;;;;;;;15.32;100.00;100500.67;107469;1246;73579;-75
2023/10/19 10:14:28;;;;;;;9.20;6.00;;;;;;;15.61;100.00;100502.16;107528;1245;61119;-76
2023/10/19 10:17:02;;;;;;;10.30;5.70;;;;;;;15.69;100.00;100499.05;107474;1241;61619;-76
2023/10/19 10:19:31;;;;;;;7.40;5.00;;;;;;;15.91;100.00;100499.04;107429;1255;63707;-76
2023/10/19 10:22:20;;;;;;;11.40;5.40;;;;;;;15.92;99.82;100490.52;107343;1241;71968;-75
2023/10/19 10:24:56;;;;;;;11.00;5.70;;;;;;;16.37;99.41;100488.66;107362;1245;60694;-82
2023/10/19 10:27:25;;;;;;;8.70;4.40;;;;;;;16.77;96.58;100478.83;107482;1254;72928;-74
2023/10/19 10:29:59;;;;;;;7.80;4.50;;;;;;;17.37;88.77;100478.31;107462;1245;57566;-80
2023/10/19 10:32:56;;;;;;;6.80;4.50;;;;;;;17.33;87.89;100477.45;107352;1245;61111;-78
2023/10/19 10:35:37;;;;;;;10.80;4.80;;;;;;;17.09;88.64;100468.34;107432;1255;71556;-78
2023/10/19 10:38:13;;;;;;;8.30;4.50;;;;;;;16.60;88.29;100467.02;107513;1252;61712;-81
2023/10/19 10:40:48;;;;;;;6.50;4.90;;;;;;;16.66;88.81;100464.48;107487;1244;70301;-81
2023/10/19 10:43:19;;;;;;;8.90;4.80;;;;;;;16.70;88.53;100459.17;107376;1245;73660;-81
2023/10/19 10:45:48;;;;;;;6.60;5.10;;;;;;;16.92;89.26;100449.05;107447;1245;60592;-82
2023/10/19 10:48:19;;;;;;;10.30;5.30;;;;;;;16.61;89.37;100439.44;107424;1245;59151;-81
2023/10/19 10:50:48;;;;;;;12.30;5.10;;;;;;;16.91;87.82;100434.28;107400;1252;73404;-82
2023/10/19 10:53:19;;;;;;;7.80;5.00;;;;;;;17.09;87.34;100438.30;107421;1243;71459;-78
2023/10/19 10:55:48;;;;;;;8.80;5.10;;;;;;;17.33;86.28;100434.32;107465;1255;59587;-81
2023/10/19 10:58:18;;;;;;;10.50;5.20;;;;;;;17.58;83.97;100428.49;107316;1254;62789;-80
2023/10/19 11:00:48;;;;;;;6.40;4.30;;;;;;;17.23;83.76;100417.55;107341;1243;60225;-81
2023/10/19 11:03:18;;;;;;;8.60;4.40;;;;;;;17.51;82.26;100409.14;107406;1244;62630;-80
2023/10/19 11:05:47;;;;;;;6.30;3.50;;;;;;;17.64;82.14;100412.77;107355;1241;72885;-80
2023/10/19 11:08:17;;;;;;;6.70;4.30;;;;;;;18.63;78.67;100411.35;107470;1244;62144;-81
2023/10/19 11:10:48;;;;;;;7.20;4.40;;;;;;;18.80;75.22;100410.09;107436;1244;68600;-79
2023/10/19 11:13:23;;;;;;;10.70;4.00;;;;;;;19.19;76.63;100408.35;107357;1244;72483;-78
2023/10/19 11:15:56;;;;;;;7.60;4.20;;;;;;;19.21;72.05;100405.83;107155;1248;59116;-77
2023/10/19 11:18:45;;;;;;;6.20;3.60;;;;;;;18.93;71.43;100397.11;107448;1244;61371;-79
2023/10/19 11:21:14;;;;;;;7.10;3.20;;;;;;;19.51;71.98;100391.86;107426;1248;72666;-80
2023/10/19 11:23:46;;;;;;;6.50;3.40;;;;;;;19.75;70.58;100379.39;107505;1244;72305;-79
2023/10/19 11:26:26;;;;;;;5.20;3.30;;;;;;;19.50;69.29;100378.55;107302;1245;60184;-80
2023/10/19 11:29:05;;;;;;;7.80;3.70;;;;;;;19.51;67.54;100373.64;107406;1245;62497;-77
2023/10/19 11:31:41;;;;;;;3.90;3.00;;;;;;;19.64;64.67;100369.88;107370;1252;59034;-76
2023/10/19 11:34:10;;;;;;;5.10;3.20;;;;;;;19.12;66.17;100362.21;107394;1245;58653;-81